Time;durP1;ratioP1;P1;durP2;ratioP2;P2;SDS_P1;SDS_P2;PMS_P1;PMS_P2;Temp;Humidity;BMP_temperature;BMP_pressure;BME280_temperature;BME280_humidity;BME280_pressure;Samples;Min_cycle;Max_cycle;Signal;HPM_P1;HPM_P2
2021/12/11 00:07:54;;;;;;;0.40;0.40;;;1.00;93.20;-0.60;100374.00;;;;31154087;28;20060;-75
2021/12/11 00:22:58;;;;;;;0.40;0.40;;;1.00;93.10;-0.70;100394.00;;;;31222149;28;20053;-75
2021/12/11 00:38:26;;;;;;;0.32;0.32;;;0.90;93.00;-0.70;100440.00;;;;31265799;28;20072;-74
2021/12/11 00:53:56;;;;;;;0.40;0.40;;;0.80;94.00;-0.80;100471.00;;;;31274987;28;20045;-73
2021/12/11 01:09:28;;;;;;;0.30;0.30;;;0.80;94.80;-0.90;100505.00;;;;31265662;28;20076;-73
2021/12/11 01:24:46;;;;;;;0.30;0.30;;;1.10;94.10;-0.80;100540.00;;;;31193885;28;20599;-74
2021/12/11 01:39:50;;;;;;;0.30;0.30;;;0.80;93.70;-0.80;100572.00;;;;31258847;28;20063;-73
2021/12/11 01:54:53;;;;;;;0.40;0.40;;;0.80;94.60;-0.80;100599.00;;;;31265269;28;20059;-74
2021/12/11 02:09:57;;;;;;;0.50;0.50;;;0.90;94.30;-0.80;100631.00;;;;31252704;28;20040;-74
2021/12/11 02:25:06;;;;;;;0.30;0.30;;;1.00;94.90;-0.60;100666.00;;;;31270322;28;20053;-74
2021/12/11 02:40:26;;;;;;;0.30;0.30;;;1.00;94.60;-0.60;100685.00;;;;31244212;28;20049;-74
2021/12/11 02:55:45;;;;;;;0.40;0.40;;;0.80;95.20;-0.60;100690.00;;;;31253767;28;20052;-74
2021/12/11 03:10:53;;;;;;;0.40;0.40;;;1.00;94.70;-0.60;100708.00;;;;31263147;28;20060;-74
2021/12/11 03:26:01;;;;;;;0.30;0.30;;;1.00;94.40;-0.70;100751.00;;;;31226293;28;20045;-74
2021/12/11 03:41:04;;;;;;;0.30;0.30;;;0.90;94.90;-0.60;100762.00;;;;31234506;28;20493;-74
2021/12/11 03:56:11;;;;;;;0.43;0.43;;;1.00;94.90;-0.30;100775.00;;;;31243885;28;20061;-74
2021/12/11 04:11:21;;;;;;;0.40;0.40;;;1.40;94.90;-0.10;100787.00;;;;31223569;28;20064;-74
2021/12/11 04:26:22;;;;;;;0.30;0.30;;;1.40;95.30;0.10;100805.00;;;;31285683;28;20055;-75
2021/12/11 04:41:36;;;;;;;0.40;0.40;;;1.70;95.00;0.30;100838.00;;;;31254104;28;20051;-74
2021/12/11 05:13:24;;;;;;;0.20;0.20;;;2.00;95.60;0.50;100884.00;;;;31251427;28;20052;-75
2021/12/11 05:28:25;;;;;;;0.40;0.40;;;2.10;95.80;0.60;100919.00;;;;31152187;28;20111;-75
2021/12/11 05:43:34;;;;;;;0.40;0.40;;;2.20;96.10;0.70;100929.00;;;;31105644;28;20128;-76
2021/12/11 05:58:47;;;;;;;0.35;0.35;;;2.20;95.70;0.70;100942.00;;;;31234979;28;20074;-77
2021/12/11 06:13:48;;;;;;;0.30;0.30;;;2.20;95.50;0.70;100961.00;;;;31269721;28;20580;-77
2021/12/11 06:28:49;;;;;;;0.30;0.30;;;2.20;95.50;0.80;100967.00;;;;31205874;28;20788;-77
2021/12/11 06:43:51;;;;;;;0.30;0.30;;;2.30;95.50;0.80;100983.00;;;;31271344;28;20152;-78
2021/12/11 06:58:53;;;;;;;0.30;0.30;;;2.30;95.80;0.80;101005.00;;;;31215708;28;20127;-78
2021/12/11 07:13:55;;;;;;;0.25;0.25;;;2.40;95.60;1.00;101053.00;;;;31256373;28;20053;-75
2021/12/11 07:29:02;;;;;;;0.20;0.20;;;2.40;96.00;1.10;101064.00;;;;31258454;28;20057;-75
2021/12/11 07:44:04;;;;;;;0.30;0.30;;;1.10;95.50;1.20;101072.00;;;;31215039;28;20115;-74
2021/12/11 07:59:09;;;;;;;0.30;0.30;;;2.60;95.90;1.30;101086.00;;;;31214147;28;20060;-75
2021/12/11 08:14:11;;;;;;;0.30;0.30;;;2.80;96.20;1.50;101112.00;;;;31249261;28;20041;-76
2021/12/11 08:29:15;;;;;;;0.30;0.30;;;2.90;96.30;1.60;101148.00;;;;31251768;28;20044;-76
2021/12/11 08:44:17;;;;;;;0.30;0.30;;;2.40;96.40;1.70;101182.00;;;;31246931;28;20091;-76
2021/12/11 08:59:22;;;;;;;0.30;0.30;;;3.10;96.00;1.90;101183.00;;;;31275769;28;20103;-75
2021/12/11 09:14:31;;;;;;;0.30;0.30;;;3.40;96.80;2.10;101214.00;;;;31270759;28;20420;-78
2021/12/11 09:29:40;;;;;;;0.20;0.20;;;3.40;97.10;2.30;101253.00;;;;31265680;28;20049;-77
2021/12/11 09:44:53;;;;;;;0.30;0.30;;;3.60;97.20;2.50;101286.00;;;;31147270;28;20071;-76
2021/12/11 09:59:59;;;;;;;0.30;0.30;;;3.90;96.80;2.70;101316.00;;;;31134554;28;20055;-78
2021/12/11 10:15:28;;;;;;;0.30;0.30;;;4.20;96.50;3.00;101330.00;;;;31129948;28;20604;-78
2021/12/11 10:30:34;;;;;;;0.30;0.30;;;4.50;96.40;3.20;101361.00;;;;31131161;28;20518;-77
2021/12/11 10:45:35;;;;;;;0.30;0.30;;;4.50;96.30;3.40;101365.00;;;;31129297;28;20068;-77
2021/12/11 11:00:45;;;;;;;0.40;0.40;;;4.70;96.30;3.50;101401.00;;;;31128809;28;20049;-77
2021/12/11 11:15:49;;;;;;;0.30;0.30;;;4.70;96.10;3.60;101430.00;;;;31123464;28;20053;-77
2021/12/11 11:30:58;;;;;;;0.30;0.30;;;4.80;96.80;3.50;101455.00;;;;31093099;28;20071;-76
2021/12/11 11:46:00;;;;;;;4.63;1.48;;;6.30;97.10;3.70;101486.00;;;;31143017;28;20053;-76
2021/12/11 12:01:24;;;;;;;0.32;0.32;;;4.80;96.40;3.50;101502.00;;;;31133232;28;20425;-77
2021/12/11 12:17:18;;;;;;;0.30;0.30;;;4.80;96.50;3.50;101534.00;;;;31130941;28;20056;-78
2021/12/11 12:32:25;;;;;;;0.30;0.30;;;5.10;97.20;3.70;101542.00;;;;31103977;28;20160;-77
2021/12/11 12:47:32;;;;;;;1.20;1.20;;;5.10;97.10;3.90;101548.00;;;;31188534;28;21186;-76
2021/12/11 13:02:37;;;;;;;0.30;0.30;;;5.20;96.60;4.00;101553.00;;;;31258185;28;20103;-77
2021/12/11 13:17:48;;;;;;;0.20;0.20;;;5.30;97.10;4.20;101569.00;;;;31184618;28;20630;-77
2021/12/11 13:32:50;;;;;;;0.30;0.30;;;5.60;96.50;4.40;101592.00;;;;31272226;28;20098;-77
2021/12/11 13:47:53;;;;;;;0.20;0.20;;;5.70;96.70;4.60;101597.00;;;;31281604;28;20084;-78
2021/12/11 14:02:54;;;;;;;0.20;0.20;;;5.80;96.70;4.70;101599.00;;;;31263212;28;20105;-78
2021/12/11 14:17:55;;;;;;;0.20;0.20;;;6.00;96.00;4.70;101625.00;;;;31254455;28;20733;-78
2021/12/11 14:32:57;;;;;;;0.28;0.28;;;6.00;96.10;4.80;101632.00;;;;31212014;28;20484;-78
2021/12/11 14:47:58;;;;;;;0.20;0.20;;;6.00;96.00;4.80;101667.00;;;;31225771;28;20188;-78
2021/12/11 15:03:00;;;;;;;0.20;0.20;;;5.90;95.80;4.60;101682.00;;;;31247234;28;20528;-78
2021/12/11 15:18:02;;;;;;;0.30;0.30;;;5.80;95.90;4.30;101689.00;;;;31235377;28;20044;-78
2021/12/11 15:33:04;;;;;;;0.20;0.20;;;5.60;96.40;4.10;101723.00;;;;31264538;28;20055;-79
2021/12/11 15:48:06;;;;;;;0.25;0.25;;;5.40;96.00;4.10;101729.00;;;;31261735;28;20044;-78
2021/12/11 16:03:08;;;;;;;0.20;0.20;;;5.30;95.90;3.80;101756.00;;;;31277541;28;20049;-78
2021/12/11 16:18:10;;;;;;;0.30;0.30;;;5.10;95.70;3.50;101755.00;;;;31284827;28;20044;-79
2021/12/11 16:33:11;;;;;;;0.40;0.40;;;4.80;95.60;3.20;101775.00;;;;31286648;28;20037;-78
2021/12/11 16:48:17;;;;;;;0.30;0.30;;;4.60;95.50;2.90;101787.00;;;;31277181;28;20098;-78
2021/12/11 17:03:19;;;;;;;0.30;0.30;;;4.40;95.60;2.70;101813.00;;;;31290672;28;20110;-78
2021/12/11 17:18:24;;;;;;;0.30;0.30;;;4.10;95.50;2.60;101814.00;;;;31269372;28;20509;-78
2021/12/11 17:33:32;;;;;;;0.30;0.30;;;4.00;95.60;2.70;101826.00;;;;31274919;28;20852;-79
2021/12/11 17:48:35;;;;;;;0.55;0.55;;;4.10;96.50;2.70;101856.00;;;;31280539;28;20042;-80
2021/12/11 18:03:41;;;;;;;0.30;0.30;;;4.20;96.80;3.00;101864.00;;;;31263111;28;20049;-80
2021/12/11 18:18:56;;;;;;;0.20;0.20;;;4.40;97.50;3.20;101892.00;;;;31277376;28;20041;-80
2021/12/11 18:33:57;;;;;;;0.30;0.30;;;4.50;97.50;3.30;101909.00;;;;31267869;28;20544;-80
2021/12/11 18:48:59;;;;;;;0.30;0.30;;;4.80;96.60;3.50;101902.00;;;;31247058;28;20445;-79
2021/12/11 19:04:11;;;;;;;0.30;0.30;;;4.80;96.30;3.50;101933.00;;;;31274033;28;20048;-79
2021/12/11 19:19:14;;;;;;;0.30;0.30;;;4.80;96.20;3.50;101919.00;;;;31246788;28;20055;-80
2021/12/11 19:34:17;;;;;;;0.30;0.30;;;4.70;96.40;3.40;101908.00;;;;31246052;28;20056;-78
2021/12/11 19:49:20;;;;;;;0.85;0.85;;;4.60;96.40;3.30;101918.00;;;;31172608;28;20050;-79
2021/12/11 20:04:24;;;;;;;0.30;0.30;;;4.60;96.30;3.20;101928.00;;;;31224518;28;20118;-78
2021/12/11 20:19:37;;;;;;;0.30;0.30;;;4.50;96.40;3.10;101947.00;;;;31237197;28;20087;-79
2021/12/11 20:34:38;;;;;;;0.30;0.30;;;4.50;96.70;3.10;101951.00;;;;31243906;28;20056;-77
2021/12/11 20:49:44;;;;;;;0.40;0.40;;;5.20;97.10;3.00;101942.00;;;;31205684;28;20486;-78
2021/12/11 21:05:13;;;;;;;0.30;0.30;;;4.40;96.40;3.00;101948.00;;;;31199950;28;20092;-79
2021/12/11 21:20:23;;;;;;;0.50;0.50;;;4.40;96.40;3.10;101957.00;;;;31217324;28;20069;-80
2021/12/11 21:35:31;;;;;;;0.30;0.30;;;4.40;96.50;3.10;101947.00;;;;31212071;28;20049;-80
2021/12/11 21:50:42;;;;;;;0.40;0.40;;;4.50;96.30;3.20;101964.00;;;;31218474;28;20604;-80
2021/12/11 22:06:00;;;;;;;0.30;0.30;;;4.50;96.40;3.30;101945.00;;;;31249329;28;20042;-79
2021/12/11 22:21:08;;;;;;;0.30;0.30;;;4.60;96.20;3.40;101975.00;;;;31261430;28;20055;-79
2021/12/11 22:36:09;;;;;;;0.20;0.20;;;4.70;96.30;3.50;101999.00;;;;31259667;28;20040;-79
2021/12/11 22:51:23;;;;;;;0.20;0.20;;;4.90;96.10;3.60;101987.00;;;;31258987;28;20528;-79
2021/12/11 23:06:27;;;;;;;0.30;0.30;;;5.20;96.70;3.60;101984.00;;;;31267491;28;20155;-79
2021/12/11 23:21:42;;;;;;;0.30;0.30;;;4.90;96.10;3.70;101981.00;;;;31272306;28;20080;-80
2021/12/11 23:36:51;;;;;;;0.25;0.25;;;4.90;96.10;3.70;101979.00;;;;31285571;28;20519;-79
2021/12/11 23:51:53;;;;;;;0.20;0.20;;;5.00;96.10;3.70;101966.00;;;;31257187;28;20127;-79
